Moura, Brazil
Current Conditions -  °F | °C
As of 9:00 AM on Saturday 25 Oct 2014 (Local Time) from SBEG Reporting Station
Scattered Clouds Scattered Clouds  
Wind Chill: 81°   Ceiling: Unl
Heat Index: 85°   Visibility: 6mi
Dew Point: 73°   Wind: 3mph
Humidity: 79%   Direction: 240°WSW
Pressure: 29.88"   Gusts: NA
Location:  1.45°S, 61.63°W
Report Text: SBEG 251300Z 24003KT 9999 SCT009 SCT100 27/23 Q1012
Loading
Personal Weather Stations






























Interactive Weather Map
Tropical Storm Tracking
New forecast layout! Learn more

10-Day Weather Forecast

Advertisements
Track Severe Weather on mobile